Time;durP1;ratioP1;P1;durP2;ratioP2;P2;SDS_P1;SDS_P2;PMS_P1;PMS_P2;Temp;Humidity;BMP_temperature;BMP_pressure;BME280_temperature;BME280_humidity;BME280_pressure;Samples;Min_cycle;Max_cycle;Signal;HPM_P1;HPM_P2
2024/02/11 00:01:36;;;;;;;33.10;15.80;;;;;;;7.10;82.19;98704.27;79086;1301;3014096;-66
2024/02/11 00:04:04;;;;;;;38.20;24.20;;;;;;;6.95;82.63;98702.86;77851;1304;3056677;-69
2024/02/11 00:06:31;;;;;;;38.80;20.00;;;;;;;6.84;83.52;98708.35;79067;1301;3013620;-63
2024/02/11 00:08:57;;;;;;;42.70;22.00;;;;;;;6.61;83.75;98709.47;79041;1300;3013157;-64
2024/02/11 00:11:28;;;;;;;39.70;22.90;;;;;;;6.40;84.71;98706.14;77849;1303;3028863;-64
2024/02/11 00:13:55;;;;;;;47.70;23.90;;;;;;;6.22;85.49;98704.36;79153;1303;3013718;-64
2024/02/11 00:16:23;;;;;;;47.90;27.50;;;;;;;6.13;86.20;98702.24;77890;1301;3028853;-70
2024/02/11 00:18:50;;;;;;;30.70;15.40;;;;;;;6.15;86.84;98701.58;79123;1299;3014010;-66
2024/02/11 00:21:17;;;;;;;39.40;19.70;;;;;;;6.66;85.40;98701.02;79040;1301;3012213;-64
2024/02/11 00:23:46;;;;;;;34.20;16.50;;;;;;;7.24;83.11;98692.13;77841;1304;3053310;-64
2024/02/11 00:26:12;;;;;;;32.90;18.70;;;;;;;7.29;82.22;98697.75;79214;1302;3011661;-66
2024/02/11 00:28:43;;;;;;;32.90;20.50;;;;;;;7.25;83.72;98688.05;78656;1304;3011590;-68
2024/02/11 00:31:12;;;;;;;33.70;19.60;;;;;;;7.13;84.30;98692.10;79130;1302;3013652;-65
2024/02/11 00:33:40;;;;;;;32.60;20.50;;;;;;;7.00;84.62;98695.63;79090;1299;3011564;-63
2024/02/11 00:36:08;;;;;;;34.30;19.00;;;;;;;6.85;84.79;98701.36;77760;1303;3056612;-68
2024/02/11 00:38:37;;;;;;;38.20;19.50;;;;;;;6.65;83.67;98701.27;78990;1301;3012935;-66
2024/02/11 00:41:04;;;;;;;41.40;18.90;;;;;;;6.43;83.89;98705.98;79116;1298;3012284;-62
2024/02/11 00:43:32;;;;;;;41.00;18.90;;;;;;;6.31;84.30;98701.95;77875;1304;3051735;-66
2024/02/11 00:45:59;;;;;;;31.70;13.80;;;;;;;6.16;84.28;98702.09;79152;1304;3018406;-62
2024/02/11 00:48:28;;;;;;;32.30;16.10;;;;;;;6.48;83.63;98709.36;78861;1304;3011595;-62
2024/02/11 00:50:56;;;;;;;33.80;15.60;;;;;;;6.92;82.19;98713.49;77943;1299;3056366;-64
2024/02/11 00:53:25;;;;;;;32.80;15.60;;;;;;;6.94;81.87;98719.11;79078;1304;3018513;-65
2024/02/11 00:55:52;;;;;;;33.90;16.50;;;;;;;6.77;82.35;98719.92;79084;1302;3011349;-62
2024/02/11 00:58:20;;;;;;;32.00;15.80;;;;;;;6.53;82.88;98723.87;78010;1304;3052238;-62
2024/02/11 01:00:49;;;;;;;35.00;16.70;;;;;;;6.36;83.42;98725.66;79182;1299;3014097;-64
2024/02/11 01:03:16;;;;;;;36.30;16.60;;;;;;;6.20;83.79;98726.91;79000;1299;3013674;-62
2024/02/11 01:05:44;;;;;;;35.60;17.10;;;;;;;6.00;84.35;98725.85;77893;1303;3057336;-65
2024/02/11 01:08:11;;;;;;;35.30;17.30;;;;;;;5.87;85.04;98727.92;79123;1300;3012983;-65
2024/02/11 01:11:50;;;;;;;31.00;17.00;;;;;;;5.80;85.48;98730.21;79784;1302;3012978;-64
2024/02/11 01:14:18;;;;;;;26.30;10.70;;;;;;;5.64;86.37;98732.06;78909;1307;3013119;-65
2024/02/11 01:16:46;;;;;;;27.90;15.20;;;;;;;6.15;85.35;98741.38;77901;1304;3028429;-63
2024/02/11 01:19:13;;;;;;;31.50;13.90;;;;;;;6.72;83.45;98745.11;79177;1301;3013597;-64
2024/02/11 01:21:39;;;;;;;32.30;15.90;;;;;;;6.81;82.65;98747.20;79197;1301;3011552;-64
2024/02/11 01:24:07;;;;;;;34.30;16.60;;;;;;;6.63;82.80;98746.11;77755;1295;3026263;-64
2024/02/11 01:26:36;;;;;;;32.50;15.80;;;;;;;6.41;83.39;98748.86;79296;1300;3013714;-66
2024/02/11 01:29:06;;;;;;;34.60;17.80;;;;;;;6.20;84.07;98750.34;79298;1295;3011853;-65
2024/02/11 01:31:35;;;;;;;40.90;17.70;;;;;;;6.04;84.56;98751.92;78155;1300;3051354;-64
2024/02/11 01:34:03;;;;;;;39.00;17.60;;;;;;;5.87;84.70;98748.78;79268;1301;3012950;-68
2024/02/11 01:36:30;;;;;;;40.30;17.80;;;;;;;5.71;85.41;98751.55;79338;1295;3011651;-67
2024/02/11 01:38:58;;;;;;;40.60;18.60;;;;;;;5.61;86.01;98746.64;78013;1301;3050723;-65
2024/02/11 01:41:25;;;;;;;28.80;12.70;;;;;;;5.59;86.30;98745.00;79301;1295;3013595;-67
2024/02/11 01:43:52;;;;;;;32.90;15.50;;;;;;;6.07;85.23;98747.41;79284;1296;3012860;-66
2024/02/11 01:46:20;;;;;;;30.50;13.90;;;;;;;6.62;83.12;98748.94;78078;1300;3028607;-62
2024/02/11 01:48:48;;;;;;;34.30;15.00;;;;;;;6.67;82.03;98747.27;79299;1301;3018553;-67
2024/02/11 01:51:17;;;;;;;34.10;16.60;;;;;;;6.47;82.12;98748.02;79269;1301;3011966;-71
2024/02/11 01:53:48;;;;;;;34.80;16.00;;;;;;;6.38;83.10;98753.41;78224;1295;3049031;-64
2024/02/11 01:56:20;;;;;;;36.10;17.20;;;;;;;6.14;83.57;98756.27;79242;1300;3011498;-67
2024/02/11 01:58:51;;;;;;;35.80;17.90;;;;;;;5.95;83.99;98756.35;78105;1299;3049408;-61
2024/02/11 02:01:21;;;;;;;36.00;17.00;;;;;;;5.87;84.57;98753.14;79371;1295;3013119;-67
2024/02/11 02:03:50;;;;;;;36.20;16.80;;;;;;;5.67;85.28;98754.85;77938;1300;3049360;-65
2024/02/11 02:06:16;;;;;;;40.50;16.80;;;;;;;5.55;85.86;98753.21;79189;1303;3021216;-65
2024/02/11 02:08:43;;;;;;;27.80;13.40;;;;;;;5.50;86.45;98758.52;79244;1301;3011611;-66
2024/02/11 02:11:11;;;;;;;32.00;15.20;;;;;;;5.97;85.32;98765.63;78024;1301;3025568;-66
2024/02/11 02:13:38;;;;;;;32.10;14.60;;;;;;;6.56;83.36;98766.16;79260;1296;3018975;-66
2024/02/11 02:16:08;;;;;;;34.40;16.20;;;;;;;6.67;82.13;98762.08;79181;1295;3011611;-62
2024/02/11 02:18:37;;;;;;;35.60;16.10;;;;;;;6.51;82.21;98766.75;78035;1301;3049407;-64
2024/02/11 02:21:04;;;;;;;29.50;15.70;;;;;;;6.27;82.71;98764.59;79212;1301;3012980;-63
2024/02/11 02:23:31;;;;;;;35.80;17.30;;;;;;;6.07;83.68;98771.58;79237;1300;3011761;-62
2024/02/11 02:26:01;;;;;;;33.60;16.70;;;;;;;5.88;84.58;98768.88;78018;1296;3050431;-65
2024/02/11 02:28:28;;;;;;;39.40;17.20;;;;;;;5.72;85.33;98764.34;79468;1296;3012060;-66
2024/02/11 02:30:57;;;;;;;27.10;13.90;;;;;;;5.65;85.93;98763.64;78846;1300;3011629;-63
2024/02/11 02:33:24;;;;;;;28.60;11.40;;;;;;;5.69;87.01;98758.59;79343;1301;3019225;-62
2024/02/11 02:35:51;;;;;;;26.80;13.70;;;;;;;6.23;85.84;98758.38;79216;1301;3011590;-64
2024/02/11 02:38:20;;;;;;;19.30;11.20;;;;;;;6.95;84.56;98755.79;78143;1295;3052167;-65
2024/02/11 02:40:47;;;;;;;16.30;9.00;;;;;;;7.15;84.76;98764.44;79475;1301;3013074;-65
2024/02/11 02:43:15;;;;;;;26.30;13.60;;;;;;;7.15;85.22;98765.11;79272;1295;3011931;-66
2024/02/11 02:45:43;;;;;;;36.30;17.30;;;;;;;6.95;84.70;98773.77;78074;1295;3048656;-65
2024/02/11 02:48:09;;;;;;;34.40;16.30;;;;;;;6.79;84.83;98770.45;79377;1301;3013747;-68
2024/02/11 02:50:36;;;;;;;30.30;14.90;;;;;;;6.70;84.78;98766.05;79196;1301;3011838;-63
2024/02/11 02:53:07;;;;;;;28.70;15.10;;;;;;;6.64;84.87;98764.88;78004;1301;3026274;-62
2024/02/11 02:55:34;;;;;;;23.90;11.30;;;;;;;6.57;85.22;98764.21;79194;1297;3013349;-66
2024/02/11 02:58:07;;;;;;;24.60;12.40;;;;;;;7.08;84.04;98760.63;77955;1300;3028872;-64
2024/02/11 03:00:34;;;;;;;25.20;13.50;;;;;;;7.51;81.73;98762.67;79191;1297;3011659;-66
2024/02/11 03:03:06;;;;;;;32.60;15.60;;;;;;;7.57;81.40;98755.54;77984;1300;3050278;-65
2024/02/11 03:05:37;;;;;;;24.70;13.60;;;;;;;7.42;81.54;98746.83;79261;1295;3011755;-68
2024/02/11 03:08:05;;;;;;;23.40;13.10;;;;;;;7.24;82.32;98749.08;78068;1301;3050804;-68
2024/02/11 03:10:33;;;;;;;29.60;14.50;;;;;;;7.06;82.82;98749.59;79223;1301;3012950;-69
2024/02/11 03:13:00;;;;;;;27.80;14.10;;;;;;;6.87;82.54;98742.67;79222;1301;3011834;-66
2024/02/11 03:15:29;;;;;;;27.20;15.10;;;;;;;6.65;82.73;98737.83;77992;1301;3051396;-66
2024/02/11 03:17:58;;;;;;;32.80;15.60;;;;;;;6.38;82.96;98735.65;79269;1295;3013095;-65
2024/02/11 03:20:28;;;;;;;31.60;15.40;;;;;;;6.17;83.62;98736.23;78665;1301;3011849;-65
2024/02/11 03:22:54;;;;;;;40.50;16.40;;;;;;;5.96;83.99;98738.77;79400;1300;3013610;-69
2024/02/11 03:25:21;;;;;;;34.40;13.50;;;;;;;5.78;84.25;98736.02;79359;1295;3013272;-65
2024/02/11 03:27:54;;;;;;;39.90;16.40;;;;;;;6.16;83.75;98733.90;78013;1301;3026097;-69
2024/02/11 03:30:24;;;;;;;36.10;16.50;;;;;;;6.68;81.91;98734.69;79172;1301;3011975;-66
2024/02/11 03:32:51;;;;;;;33.40;15.00;;;;;;;6.76;81.51;98726.58;77883;1300;3050729;-65
2024/02/11 03:35:19;;;;;;;32.60;16.10;;;;;;;6.59;81.67;98722.80;79149;1301;3013904;-64
2024/02/11 03:37:46;;;;;;;36.80;16.80;;;;;;;6.42;82.28;98720.13;78972;1295;3012950;-64
2024/02/11 03:40:16;;;;;;;42.50;18.70;;;;;;;6.23;82.99;98717.87;78037;1300;3051527;-66
2024/02/11 03:42:44;;;;;;;34.40;18.10;;;;;;;6.05;83.63;98710.29;79238;1298;3012859;-63
2024/02/11 03:45:15;;;;;;;40.80;18.10;;;;;;;5.88;84.40;98700.58;78680;1301;3013105;-64
2024/02/11 03:47:43;;;;;;;38.60;16.40;;;;;;;5.74;85.16;98702.55;79270;1301;3013047;-70
2024/02/11 03:50:14;;;;;;;31.70;12.30;;;;;;;5.69;85.84;98701.73;77943;1295;3026666;-68
2024/02/11 03:52:41;;;;;;;32.80;14.80;;;;;;;6.18;85.13;98697.80;79225;1299;3013244;-67
2024/02/11 03:55:10;;;;;;;33.90;14.70;;;;;;;6.73;83.03;98703.61;78039;1301;3027512;-69
2024/02/11 03:57:40;;;;;;;28.80;14.20;;;;;;;6.80;82.13;98702.16;79274;1295;3014165;-66
2024/02/11 04:00:27;;;;;;;31.60;15.30;;;;;;;6.67;82.44;98705.84;78071;1300;3053682;-66
2024/02/11 04:02:57;;;;;;;43.80;17.10;;;;;;;6.44;82.91;98706.27;78032;1301;3053068;-65
2024/02/11 04:05:47;;;;;;;56.60;28.30;;;;;;;6.20;84.21;98710.55;78026;1301;3069524;-63
2024/02/11 04:08:15;;;;;;;69.30;38.80;;;;;;;6.07;85.77;98716.46;79243;1306;3011544;-66
2024/02/11 04:10:43;;;;;;;68.10;32.10;;;;;;;5.94;87.35;98703.73;77969;1301;3026739;-62
2024/02/11 04:13:09;;;;;;;32.90;15.20;;;;;;;5.89;89.51;98706.44;79318;1296;3013201;-67
2024/02/11 04:15:39;;;;;;;35.00;16.10;;;;;;;6.44;90.79;98703.33;79263;1300;3011978;-70
2024/02/11 04:18:29;;;;;;;38.60;17.70;;;;;;;7.17;89.33;98690.46;78134;1305;3053070;-67
2024/02/11 04:20:58;;;;;;;26.30;15.00;;;;;;;7.25;89.13;98683.02;79279;1300;3012833;-64
2024/02/11 04:23:48;;;;;;;29.50;16.20;;;;;;;7.14;89.47;98694.66;78132;1296;3068662;-63
2024/02/11 04:26:15;;;;;;;57.10;39.50;;;;;;;6.95;90.16;98703.39;79490;1301;3013029;-66
2024/02/11 04:28:46;;;;;;;103.30;77.00;;;;;;;6.82;90.49;98703.27;78731;1301;3011997;-66
2024/02/11 04:31:16;;;;;;;128.60;96.50;;;;;;;6.68;90.57;98706.66;79237;1303;3011576;-63
2024/02/11 04:33:46;;;;;;;57.60;39.80;;;;;;;6.51;90.21;98713.52;78027;1303;3053044;-68
2024/02/11 04:36:15;;;;;;;51.80;34.20;;;;;;;6.87;89.22;98715.37;79236;1301;3012971;-70
2024/02/11 04:38:47;;;;;;;42.50;25.50;;;;;;;7.28;87.79;98716.77;78138;1302;3052507;-65
2024/02/11 04:41:17;;;;;;;35.10;20.90;;;;;;;7.41;87.57;98715.85;79196;1300;3013163;-65
2024/02/11 04:43:48;;;;;;;35.70;19.20;;;;;;;7.27;88.04;98719.63;78045;1301;3067476;-66
2024/02/11 04:46:15;;;;;;;34.60;19.80;;;;;;;7.12;88.78;98728.04;79179;1301;3013644;-72
2024/02/11 04:48:44;;;;;;;30.00;17.60;;;;;;;6.93;89.23;98729.98;78885;1298;3011818;-66
2024/02/11 04:51:14;;;;;;;36.80;18.20;;;;;;;6.73;90.07;98724.29;79204;1299;3012940;-63
2024/02/11 04:53:43;;;;;;;27.10;12.20;;;;;;;6.61;91.41;98728.80;78061;1301;3050366;-68
2024/02/11 04:56:11;;;;;;;27.30;13.80;;;;;;;7.08;91.00;98735.71;79518;1298;3014630;-66
2024/02/11 04:58:38;;;;;;;27.70;14.30;;;;;;;7.62;89.35;98730.10;79446;1301;3011887;-68
2024/02/11 05:01:08;;;;;;;22.10;13.90;;;;;;;7.62;89.05;98734.81;78026;1301;3051552;-68
2024/02/11 05:03:35;;;;;;;23.70;14.50;;;;;;;7.51;89.53;98737.56;79386;1298;3013058;-67
2024/02/11 05:06:01;;;;;;;29.20;16.40;;;;;;;7.28;90.31;98747.13;79213;1301;3011816;-65
2024/02/11 05:08:30;;;;;;;29.90;16.20;;;;;;;7.09;91.57;98752.71;78030;1301;3048853;-66
2024/02/11 05:10:57;;;;;;;28.50;16.40;;;;;;;6.88;92.68;98751.52;79460;1308;3015761;-65
2024/02/11 05:13:27;;;;;;;21.00;12.30;;;;;;;6.71;93.77;98757.33;79344;1301;3011835;-67
2024/02/11 05:15:59;;;;;;;23.60;13.70;;;;;;;7.22;93.59;98755.63;78041;1301;3050866;-62
2024/02/11 05:18:29;;;;;;;21.60;13.40;;;;;;;7.76;91.25;98755.25;79117;1297;3011989;-67
2024/02/11 05:20:57;;;;;;;20.20;12.30;;;;;;;7.73;90.95;98757.52;78103;1300;3047653;-65
2024/02/11 05:23:24;;;;;;;21.60;14.30;;;;;;;7.57;91.36;98765.45;79336;1301;3013306;-68
2024/02/11 05:25:51;;;;;;;21.20;13.50;;;;;;;7.29;93.08;98774.41;79492;1302;3011758;-66
2024/02/11 05:28:19;;;;;;;25.10;14.00;;;;;;;7.15;94.18;98778.54;77997;1301;3026551;-66
2024/02/11 05:30:46;;;;;;;18.10;11.10;;;;;;;7.05;95.16;98779.08;79341;1300;3013618;-70
2024/02/11 05:33:13;;;;;;;17.20;11.20;;;;;;;7.46;95.12;98786.33;79388;1300;3012410;-66
2024/02/11 05:35:43;;;;;;;17.60;11.70;;;;;;;7.98;93.07;98787.96;78197;1298;3050883;-66
2024/02/11 05:38:10;;;;;;;15.60;11.00;;;;;;;7.94;92.60;98789.79;79335;1295;3015932;-63
2024/02/11 05:40:41;;;;;;;19.30;13.10;;;;;;;7.80;92.72;98794.09;79452;1302;3011695;-68
2024/02/11 05:43:09;;;;;;;21.10;12.50;;;;;;;7.67;93.21;98800.06;78209;1299;3052286;-69
2024/02/11 05:45:36;;;;;;;18.70;12.60;;;;;;;7.49;93.46;98802.85;79433;1300;3013692;-67
2024/02/11 05:48:03;;;;;;;18.00;10.70;;;;;;;7.39;94.32;98804.84;79456;1301;3011479;-66
2024/02/11 05:50:32;;;;;;;15.10;10.40;;;;;;;7.72;93.79;98809.06;78042;1301;3050180;-65
2024/02/11 05:52:59;;;;;;;15.20;9.90;;;;;;;8.11;92.14;98808.41;79341;1301;3011584;-68
2024/02/11 05:55:26;;;;;;;15.50;10.90;;;;;;;8.08;91.92;98816.11;79445;1302;3011841;-66
2024/02/11 05:57:54;;;;;;;17.80;12.00;;;;;;;7.94;92.56;98827.23;78113;1301;3052179;-66
2024/02/11 06:00:23;;;;;;;19.80;12.50;;;;;;;7.72;93.31;98826.62;79355;1301;3013623;-70
2024/02/11 06:02:53;;;;;;;18.00;11.90;;;;;;;7.48;94.37;98825.05;79410;1295;3011929;-68
2024/02/11 06:05:22;;;;;;;17.10;8.20;;;;;;;7.42;95.27;98824.52;78224;1297;3049793;-67
2024/02/11 06:07:54;;;;;;;17.30;10.60;;;;;;;7.85;94.64;98813.46;79339;1296;3013598;-69
2024/02/11 06:10:23;;;;;;;16.60;10.40;;;;;;;8.28;92.30;98812.46;78349;1301;3050123;-70
2024/02/11 06:12:50;;;;;;;16.80;11.40;;;;;;;8.39;91.73;98811.46;79692;1299;3013014;-68
2024/02/11 06:15:20;;;;;;;16.70;12.10;;;;;;;8.23;91.63;98809.96;79584;1295;3011853;-70
2024/02/11 06:17:49;;;;;;;18.50;12.70;;;;;;;8.00;92.49;98805.94;78262;1300;3056254;-68
2024/02/11 06:20:17;;;;;;;17.90;11.50;;;;;;;7.92;93.36;98810.14;79572;1295;3013021;-69
2024/02/11 06:22:49;;;;;;;12.40;8.50;;;;;;;7.71;94.15;98812.37;78895;1295;3013195;-72
2024/02/11 06:25:19;;;;;;;17.00;10.50;;;;;;;8.13;93.71;98809.52;79480;1300;3011495;-70
2024/02/11 06:27:51;;;;;;;15.60;9.90;;;;;;;8.58;91.52;98811.17;78384;1300;3051838;-66
2024/02/11 06:30:19;;;;;;;17.80;11.70;;;;;;;8.58;90.81;98807.48;79492;1300;3013147;-68
2024/02/11 06:32:49;;;;;;;17.20;11.70;;;;;;;8.48;91.10;98801.09;78228;1301;3068604;-68
2024/02/11 06:35:16;;;;;;;18.90;12.90;;;;;;;8.32;91.53;98805.05;79566;1301;3012806;-65
2024/02/11 06:37:43;;;;;;;20.50;12.60;;;;;;;8.10;92.35;98802.58;79287;1295;3013580;-69
2024/02/11 06:40:15;;;;;;;20.20;13.30;;;;;;;7.90;93.30;98802.21;78127;1301;3054954;-67
2024/02/11 06:42:50;;;;;;;14.10;9.10;;;;;;;7.71;94.60;98803.16;79448;1301;3013140;-68
2024/02/11 06:45:19;;;;;;;17.20;10.30;;;;;;;8.28;93.94;98804.11;78194;1301;3052249;-68
2024/02/11 06:47:46;;;;;;;17.80;10.70;;;;;;;8.82;91.37;98806.71;79479;1299;3012927;-70
2024/02/11 06:50:18;;;;;;;16.70;11.70;;;;;;;8.86;90.38;98807.64;79571;1298;3011933;-71
2024/02/11 06:52:48;;;;;;;17.60;12.70;;;;;;;8.78;90.30;98810.62;78282;1295;3056730;-70
2024/02/11 06:55:16;;;;;;;20.10;13.90;;;;;;;8.60;90.49;98808.27;79462;1295;3013555;-66
2024/02/11 06:57:45;;;;;;;24.70;15.10;;;;;;;8.37;91.51;98808.94;79022;1301;3011687;-73
2024/02/11 07:00:12;;;;;;;23.50;14.90;;;;;;;8.23;92.28;98816.98;79728;1300;3013462;-63
2024/02/11 07:02:40;;;;;;;15.20;9.60;;;;;;;8.11;93.24;98818.53;79425;1301;3012162;-64
2024/02/11 07:05:10;;;;;;;19.10;11.80;;;;;;;8.48;92.47;98814.54;78029;1303;3067333;-67
2024/02/11 07:07:44;;;;;;;20.40;11.40;;;;;;;8.95;90.68;98813.02;79404;1301;3012009;-67
2024/02/11 07:10:13;;;;;;;19.50;12.80;;;;;;;9.02;89.88;98821.15;78012;1298;3056079;-63
2024/02/11 07:12:41;;;;;;;20.60;12.70;;;;;;;8.81;90.54;98820.90;79300;1298;3011807;-62
2024/02/11 07:15:11;;;;;;;22.30;13.30;;;;;;;8.59;91.25;98816.17;78753;1298;3011689;-61
2024/02/11 07:17:41;;;;;;;24.30;15.10;;;;;;;8.44;91.99;98817.59;79334;1301;3016041;-62
2024/02/11 07:20:14;;;;;;;23.70;14.70;;;;;;;8.19;93.08;98818.90;78114;1300;3053093;-60
2024/02/11 07:22:43;;;;;;;16.20;10.10;;;;;;;8.13;93.89;98815.80;79449;1295;3014249;-71
2024/02/11 07:25:12;;;;;;;20.30;11.00;;;;;;;8.63;93.13;98817.29;78124;1301;3051265;-66
2024/02/11 07:27:40;;;;;;;18.80;11.80;;;;;;;9.05;90.66;98808.50;79375;1297;3011771;-65
2024/02/11 07:30:13;;;;;;;22.00;12.80;;;;;;;9.24;90.22;98800.52;78957;1298;3011648;-69
2024/02/11 07:32:44;;;;;;;20.80;12.60;;;;;;;9.01;90.04;98799.73;79566;1295;3011885;-68
2024/02/11 07:35:13;;;;;;;19.90;13.20;;;;;;;8.77;90.72;98796.73;78180;1300;3050078;-64
2024/02/11 07:37:41;;;;;;;23.70;15.10;;;;;;;8.57;91.63;98797.27;79251;1297;3013880;-67
2024/02/11 07:40:11;;;;;;;26.10;13.50;;;;;;;8.33;93.30;98805.67;79279;1301;3011834;-66
2024/02/11 07:42:40;;;;;;;19.40;10.00;;;;;;;8.26;94.07;98808.39;78122;1300;3051133;-64
2024/02/11 07:45:08;;;;;;;16.20;10.50;;;;;;;8.69;93.19;98815.67;79415;1295;3012997;-61
2024/02/11 07:47:35;;;;;;;19.30;12.30;;;;;;;9.25;91.02;98812.30;79239;1295;3011686;-63
2024/02/11 07:50:03;;;;;;;18.60;11.90;;;;;;;9.31;89.92;98815.94;78093;1300;3050109;-63
2024/02/11 07:52:30;;;;;;;16.00;10.60;;;;;;;9.15;90.08;98823.09;79354;1300;3013291;-63
2024/02/11 07:54:57;;;;;;;19.70;12.80;;;;;;;8.82;91.25;98827.96;79317;1295;3011660;-65
2024/02/11 07:57:26;;;;;;;24.50;14.70;;;;;;;8.58;92.85;98835.10;78004;1300;3050743;-63
2024/02/11 07:59:52;;;;;;;21.20;12.80;;;;;;;8.43;93.78;98837.88;79264;1298;3012923;-67
2024/02/11 08:02:19;;;;;;;16.60;9.70;;;;;;;8.36;94.71;98840.05;79088;1298;3012023;-63
2024/02/11 08:04:47;;;;;;;15.20;9.90;;;;;;;8.69;94.25;98838.60;77900;1300;3050786;-64
2024/02/11 08:07:14;;;;;;;18.30;11.40;;;;;;;9.26;92.35;98836.73;79234;1311;3011700;-67
2024/02/11 08:09:41;;;;;;;18.20;11.70;;;;;;;9.37;91.06;98834.27;79171;1300;3011589;-63
2024/02/11 08:12:09;;;;;;;19.30;11.70;;;;;;;9.08;91.41;98832.94;77960;1300;3051448;-60
2024/02/11 08:14:40;;;;;;;21.50;13.10;;;;;;;8.89;92.47;98828.62;79340;1298;3014315;-63
2024/02/11 08:17:08;;;;;;;24.80;12.80;;;;;;;8.68;93.38;98832.15;78097;1297;3051028;-63
2024/02/11 08:19:35;;;;;;;15.90;9.00;;;;;;;8.54;94.44;98837.56;79105;1300;3018754;-66
2024/02/11 08:22:06;;;;;;;18.90;10.00;;;;;;;8.95;93.80;98841.67;79272;1300;3011514;-64
2024/02/11 08:24:35;;;;;;;19.60;11.90;;;;;;;9.41;91.71;98841.12;77981;1300;3069382;-63
2024/02/11 08:27:02;;;;;;;21.00;11.20;;;;;;;9.45;91.02;98842.78;79175;1300;3013408;-64
2024/02/11 08:29:29;;;;;;;21.10;12.30;;;;;;;9.26;91.55;98848.02;79217;1297;3011585;-60
2024/02/11 08:31:57;;;;;;;22.70;12.20;;;;;;;9.06;92.34;98844.61;77969;1300;3054193;-62
2024/02/11 08:34:24;;;;;;;22.90;13.70;;;;;;;8.81;93.39;98847.91;79363;1298;3013349;-61
2024/02/11 08:36:51;;;;;;;15.10;8.20;;;;;;;8.64;94.98;98848.64;79263;1297;3011719;-63
2024/02/11 08:39:19;;;;;;;17.20;8.80;;;;;;;9.17;94.29;98852.09;78084;1300;3028453;-62
2024/02/11 08:41:46;;;;;;;15.80;10.20;;;;;;;9.54;92.15;98853.77;79255;1298;3013253;-62
2024/02/11 08:44:13;;;;;;;15.60;10.40;;;;;;;9.42;91.98;98846.00;79180;1298;3011914;-61
2024/02/11 08:46:42;;;;;;;15.70;9.70;;;;;;;9.37;92.30;98838.92;77991;1299;3053334;-62
2024/02/11 08:49:11;;;;;;;18.70;11.70;;;;;;;9.32;92.74;98838.03;79160;1301;3020565;-64
2024/02/11 08:51:40;;;;;;;19.10;11.10;;;;;;;9.01;93.45;98843.56;79009;1300;3011785;-64
2024/02/11 08:54:07;;;;;;;12.70;7.70;;;;;;;8.87;94.79;98837.60;79209;1300;3013174;-63
2024/02/11 08:56:33;;;;;;;15.80;9.30;;;;;;;9.36;93.96;98840.60;79715;1295;3011839;-62
2024/02/11 08:59:03;;;;;;;15.80;9.00;;;;;;;9.80;91.56;98846.77;78160;1301;3026135;-65
2024/02/11 09:01:30;;;;;;;15.90;9.90;;;;;;;9.84;91.08;98856.33;79296;1295;3011605;-65
2024/02/11 09:03:59;;;;;;;16.60;10.40;;;;;;;9.53;91.56;98866.22;79221;1296;3012266;-65
2024/02/11 09:06:28;;;;;;;18.90;10.90;;;;;;;9.26;94.08;98866.04;78045;1300;3052131;-62
2024/02/11 09:08:56;;;;;;;16.60;10.30;;;;;;;9.00;95.05;98855.48;79383;1300;3013628;-65
2024/02/11 09:11:22;;;;;;;12.40;7.50;;;;;;;9.00;95.36;98854.80;79396;1296;3012101;-63
2024/02/11 09:13:50;;;;;;;13.00;8.30;;;;;;;9.44;94.36;98855.80;78045;1300;3055750;-63
2024/02/11 09:16:23;;;;;;;13.20;8.70;;;;;;;10.02;91.97;98852.64;79433;1298;3013525;-62
2024/02/11 09:18:52;;;;;;;15.40;10.10;;;;;;;9.90;90.91;98857.14;78222;1300;3049547;-63
2024/02/11 09:21:19;;;;;;;14.70;9.70;;;;;;;9.63;91.94;98868.39;79341;1300;3013310;-65
2024/02/11 09:23:45;;;;;;;19.10;11.10;;;;;;;9.46;93.28;98867.23;79324;1300;3013434;-64
2024/02/11 09:26:13;;;;;;;16.30;10.10;;;;;;;9.24;94.16;98868.10;78107;1298;3051340;-64
2024/02/11 09:28:42;;;;;;;11.40;7.00;;;;;;;9.19;94.83;98863.89;79495;1295;3020987;-65
2024/02/11 09:31:14;;;;;;;14.70;8.80;;;;;;;9.56;93.69;98858.88;79018;1296;3011807;-70
2024/02/11 09:33:40;;;;;;;16.80;9.80;;;;;;;9.92;92.27;98869.27;79331;1295;3012852;-63
2024/02/11 09:36:07;;;;;;;19.00;11.30;;;;;;;9.82;92.34;98873.77;80814;1293;3011576;-64
2024/02/11 09:38:35;;;;;;;23.00;13.30;;;;;;;9.51;93.79;98873.58;77655;1315;3052732;-64
2024/02/11 09:41:04;;;;;;;21.00;12.60;;;;;;;9.18;95.68;98862.05;79222;1298;3012037;-64
2024/02/11 09:43:31;;;;;;;21.70;13.40;;;;;;;9.06;96.61;98861.57;79081;1299;3011870;-63
2024/02/11 09:45:59;;;;;;;20.90;10.20;;;;;;;8.98;97.77;98857.68;77937;1303;3050985;-62
2024/02/11 09:48:27;;;;;;;18.50;10.60;;;;;;;9.46;97.17;98855.48;79027;1301;3013980;-64
2024/02/11 09:50:53;;;;;;;22.30;12.20;;;;;;;9.82;94.76;98860.60;79019;1304;3011653;-66
2024/02/11 09:53:22;;;;;;;22.80;13.00;;;;;;;9.88;94.06;98863.42;78020;1304;3053824;-63
2024/02/11 09:55:49;;;;;;;28.20;13.80;;;;;;;9.40;95.75;98869.00;79170;1299;3014434;-67
2024/02/11 09:58:16;;;;;;;21.80;12.70;;;;;;;9.26;97.06;98867.80;79083;1299;3013183;-66
2024/02/11 10:00:45;;;;;;;27.60;13.70;;;;;;;9.24;97.47;98862.88;77719;1303;3049615;-64
2024/02/11 10:03:16;;;;;;;18.80;9.80;;;;;;;9.12;98.52;98858.54;79309;1300;3012000;-67
2024/02/11 10:05:46;;;;;;;18.00;9.90;;;;;;;9.50;97.70;98854.36;78012;1304;3052226;-66
2024/02/11 10:08:16;;;;;;;20.60;11.20;;;;;;;9.91;95.32;98861.29;79386;1303;3011540;-65
2024/02/11 10:10:45;;;;;;;21.40;10.80;;;;;;;9.69;95.32;98864.87;78054;1303;3069231;-67
2024/02/11 10:13:20;;;;;;;21.80;11.10;;;;;;;9.52;96.20;98858.22;79299;1300;3013142;-65
2024/02/11 10:15:49;;;;;;;18.90;11.10;;;;;;;9.37;97.55;98851.70;80517;1298;3049638;-63
2024/02/11 10:18:18;;;;;;;22.60;11.40;;;;;;;9.37;97.73;98848.55;81811;1299;3012748;-65
2024/02/11 10:20:47;;;;;;;11.20;7.20;;;;;;;9.30;98.23;98844.98;80595;1300;3050492;-64
2024/02/11 10:23:18;;;;;;;19.40;11.70;;;;;;;9.98;97.47;98840.33;81819;1298;3012500;-66
2024/02/11 10:25:47;;;;;;;22.80;13.00;;;;;;;10.50;93.47;98835.02;80569;1299;3051435;-67
2024/02/11 10:28:14;;;;;;;19.90;12.40;;;;;;;10.64;92.31;98834.77;81809;1299;3013028;-62
2024/02/11 10:30:40;;;;;;;24.90;13.50;;;;;;;10.70;92.38;98830.46;81772;1299;3011763;-73
2024/02/11 10:33:11;;;;;;;16.70;10.30;;;;;;;10.68;92.16;98830.28;80560;1299;3048964;-65
2024/02/11 10:35:38;;;;;;;18.20;9.90;;;;;;;10.56;91.96;98824.98;81792;1299;3011219;-65
2024/02/11 10:38:07;;;;;;;17.90;6.90;;;;;;;10.52;92.19;98828.44;81196;1301;3011211;-65
2024/02/11 10:40:37;;;;;;;13.00;7.80;;;;;;;10.95;91.03;98831.66;81824;1299;3012830;-71
2024/02/11 10:43:05;;;;;;;13.60;7.90;;;;;;;11.49;88.61;98829.85;80570;1298;3057511;-66
2024/02/11 10:45:33;;;;;;;17.00;9.40;;;;;;;11.55;87.99;98824.46;81741;1299;3018607;-64
2024/02/11 10:48:00;;;;;;;19.70;12.00;;;;;;;11.47;87.88;98818.79;81802;1298;3011180;-64
2024/02/11 10:50:29;;;;;;;21.30;13.10;;;;;;;11.23;88.41;98818.98;80588;1300;3052662;-65
2024/02/11 10:52:59;;;;;;;18.00;11.90;;;;;;;11.03;89.44;98812.55;81842;1298;3012594;-64
2024/02/11 10:55:29;;;;;;;22.90;12.90;;;;;;;10.87;90.31;98810.04;80465;1299;3049546;-67
2024/02/11 10:57:56;;;;;;;17.00;9.20;;;;;;;10.75;91.05;98805.95;81604;1300;3011183;-66
2024/02/11 11:00:26;;;;;;;17.20;10.10;;;;;;;11.18;90.41;98813.21;81144;1299;3011680;-64
2024/02/11 11:02:58;;;;;;;22.10;11.90;;;;;;;11.55;88.17;98815.73;81700;1300;3013055;-64
2024/02/11 11:05:30;;;;;;;19.10;11.20;;;;;;;11.50;88.05;98818.38;80429;1298;3050033;-67
2024/02/11 11:07:57;;;;;;;22.60;12.80;;;;;;;11.32;88.35;98825.64;81694;1300;3011558;-65
2024/02/11 11:10:28;;;;;;;22.00;13.50;;;;;;;11.03;89.77;98824.97;80448;1303;3026393;-65
2024/02/11 11:12:55;;;;;;;26.40;14.50;;;;;;;10.85;90.56;98824.55;81803;1299;3011392;-62
2024/02/11 11:15:24;;;;;;;26.10;14.00;;;;;;;10.70;91.17;98823.48;80566;1301;3026642;-65
2024/02/11 11:17:52;;;;;;;23.00;10.90;;;;;;;10.53;92.05;98823.09;81828;1300;3012871;-65